This is the latest recevied weather packets stored in our database for station/object RK6MF-10. If no packets are shown the sender has not sent any weather packets the latest 10 day(s).
| Time | Temp. | Humidity | Pressure | Rain* | Wind** | Luminosity | Snow |
|---|---|---|---|---|---|---|---|
| 1777500688 | 7.22° C | 100% | 1014.8 hPa | - | - | - | - |
| 1777497090 | 8.33° C | 100% | 1014.8 hPa | - | - | - | - |
| 1777496190 | 7.78° C | 100% | 1015 hPa | - | - | - | - |
| 1777493490 | 9.44° C | 100% | 1014.9 hPa | - | - | - | - |
| 1777490789 | 9.44° C | 100% | 1014.9 hPa | - | - | - | - |
| 1777488989 | 8.89° C | 100% | 1015 hPa | - | - | - | - |
| 1777487189 | 9.44° C | 100% | 1015.1 hPa | - | - | - | - |
| 1777485389 | 10° C | 84% | 1015.1 hPa | - | - | - | - |
| 1777484489 | 10.56° C | 81% | 1015 hPa | - | - | - | - |
| 1777479987 | 11.11° C | 73% | 1014.5 hPa | - | - | - | - |
| 1777477290 | 12.78° C | 59% | 1014.5 hPa | - | - | - | - |
| 1777476390 | 12.78° C | 68% | 1014.5 hPa | - | - | - | - |
| 1777475490 | 12.78° C | 64% | 1014.5 hPa | - | - | - | - |
| 1777474590 | 13.89° C | 58% | 1014.4 hPa | - | - | - | - |
| 1777468289 | 17.22° C | 40% | 1014.1 hPa | - | - | - | - |
| 1777467389 | 19.44° C | 38% | 1014 hPa | - | - | - | - |
| 1777465588 | 20° C | 36% | 1014.1 hPa | - | - | - | - |
| 1777463788 | 21.67° C | 32% | 1014.2 hPa | - | - | - | - |
| 1777461988 | 18.33° C | 38% | 1014.2 hPa | - | - | - | - |
| 1777461088 | 16.67° C | 40% | 1014.3 hPa | - | - | - | - |
| 1777460188 | 20° C | 36% | 1014.2 hPa | - | - | - | - |
| 1777459288 | 17.78° C | 38% | 1014.4 hPa | - | - | - | - |
| 1777458388 | 23.33° C | 33% | 1014.3 hPa | - | - | - | - |
| 1777457487 | 21.11° C | 36% | 1014.4 hPa | - | - | - | - |
| 1777454789 | 17.78° C | 38% | 1014.8 hPa | - | - | - | - |
* Rain since midnight (hover to see other rain measurements)
** Current wind speed in m/s (hover to see current wind gust speed)